createdAt,value
2017-11-26T00:01:28.752Z,7.47
2017-11-26T00:03:56.207Z,6.60
2017-11-26T00:06:23.662Z,5.53
2017-11-26T00:08:51.131Z,5.80
2017-11-26T00:11:18.594Z,6.10
2017-11-26T00:13:46.078Z,5.40
2017-11-26T00:16:13.532Z,5.33
2017-11-26T00:18:41.007Z,3.80
2017-11-26T00:21:08.455Z,6.30
2017-11-26T00:23:35.910Z,5.87
2017-11-26T00:26:03.383Z,5.77
2017-11-26T00:28:30.831Z,5.23
2017-11-26T00:30:58.318Z,5.83
2017-11-26T00:33:25.775Z,5.80
2017-11-26T00:35:53.254Z,7.20
2017-11-26T00:38:20.706Z,7.10
2017-11-26T00:40:48.168Z,7.50
2017-11-26T00:43:15.653Z,7.43
2017-11-26T00:45:43.136Z,7.77
2017-11-26T00:48:10.623Z,8.20
2017-11-26T00:50:38.076Z,7.33
2017-11-26T00:53:05.550Z,8.70
2017-11-26T00:55:33.043Z,7.43
2017-11-26T00:58:00.510Z,8.20
2017-11-26T01:00:27.969Z,7.50
2017-11-26T01:02:55.450Z,8.70
2017-11-26T01:05:22.926Z,6.23
2017-11-26T01:07:50.392Z,9.57
2017-11-26T01:10:17.858Z,10.43
2017-11-26T01:12:45.330Z,8.47
2017-11-26T01:15:12.819Z,10.47
2017-11-26T01:17:40.281Z,10.00
2017-11-26T01:20:07.769Z,10.30
2017-11-26T01:22:40.834Z,9.47
2017-11-26T01:25:08.319Z,8.50
2017-11-26T01:27:35.780Z,7.60
2017-11-26T01:30:03.226Z,7.80
2017-11-26T01:32:31.425Z,8.90
2017-11-26T01:34:58.883Z,9.67
2017-11-26T01:37:26.334Z,8.70
2017-11-26T01:39:53.847Z,9.33
2017-11-26T01:42:21.297Z,8.53
2017-11-26T01:44:48.784Z,8.53
2017-11-26T01:47:16.236Z,7.60
2017-11-26T01:49:43.695Z,10.17
2017-11-26T01:52:11.170Z,7.83
2017-11-26T01:54:38.627Z,7.93
2017-11-26T01:57:06.126Z,10.73
2017-11-26T01:59:33.591Z,11.10
2017-11-26T02:02:01.078Z,9.70
2017-11-26T02:04:28.576Z,11.73
2017-11-26T02:06:56.060Z,11.07
2017-11-26T02:09:23.521Z,10.17
2017-11-26T02:11:51.012Z,10.80
2017-11-26T02:14:18.477Z,11.30
2017-11-26T02:16:45.963Z,12.50
2017-11-26T02:19:13.421Z,10.93
2017-11-26T02:21:41.179Z,12.93
2017-11-26T02:24:08.645Z,11.93
2017-11-26T02:26:36.102Z,7.57
2017-11-26T02:29:03.587Z,10.03
2017-11-26T02:31:42.700Z,11.70
2017-11-26T02:37:10.567Z,12.50
2017-11-26T02:39:38.056Z,9.20
2017-11-26T02:42:05.516Z,11.63
2017-11-26T02:44:32.975Z,11.80
2017-11-26T02:47:00.462Z,9.10
2017-11-26T02:49:27.924Z,11.27
2017-11-26T02:51:55.438Z,11.60
2017-11-26T02:54:22.906Z,9.80
2017-11-26T02:56:50.387Z,10.60
2017-11-26T02:59:17.877Z,7.80
2017-11-26T03:01:45.351Z,7.97
2017-11-26T03:04:12.839Z,8.37
2017-11-26T03:06:40.292Z,7.20
2017-11-26T03:09:07.785Z,7.00
2017-11-26T03:11:35.237Z,6.50
2017-11-26T03:14:02.694Z,7.50
2017-11-26T03:16:30.159Z,6.70
2017-11-26T03:18:57.616Z,6.70
2017-11-26T03:21:25.091Z,5.03
2017-11-26T03:23:52.563Z,5.63
2017-11-26T03:26:20.052Z,5.90
2017-11-26T03:28:47.530Z,5.47
2017-11-26T03:31:15.196Z,5.20
2017-11-26T03:33:42.652Z,4.43
2017-11-26T03:36:10.099Z,5.00
2017-11-26T03:38:37.598Z,3.50
2017-11-26T03:41:05.062Z,4.60
2017-11-26T03:43:32.537Z,6.13
2017-11-26T03:46:00.016Z,5.17
2017-11-26T03:48:27.494Z,4.90
2017-11-26T03:50:54.953Z,3.80
2017-11-26T03:53:22.424Z,4.40
2017-11-26T03:55:49.872Z,4.10
2017-11-26T03:58:17.367Z,4.90
2017-11-26T04:00:44.819Z,4.30
2017-11-26T04:03:12.378Z,3.87
2017-11-26T04:05:39.962Z,3.40
2017-11-26T04:08:07.412Z,3.30
2017-11-26T04:10:34.859Z,3.60
2017-11-26T04:13:02.540Z,3.73
2017-11-26T04:15:29.999Z,3.50
2017-11-26T04:17:57.459Z,4.53
2017-11-26T04:20:24.935Z,4.60
2017-11-26T04:22:52.395Z,4.77
2017-11-26T04:25:19.873Z,4.07
2017-11-26T04:27:47.331Z,4.33
2017-11-26T04:30:14.812Z,3.90
2017-11-26T04:32:42.271Z,4.33
2017-11-26T04:35:09.722Z,3.80
2017-11-26T04:37:37.196Z,4.57
2017-11-26T04:40:04.661Z,3.70
2017-11-26T04:42:32.156Z,3.97
2017-11-26T04:44:59.612Z,4.10
2017-11-26T04:47:27.063Z,4.63
2017-11-26T04:49:54.538Z,3.93
2017-11-26T04:52:21.994Z,4.03
2017-11-26T04:54:49.472Z,3.83
2017-11-26T04:57:16.932Z,4.10
2017-11-26T04:59:44.394Z,3.60
2017-11-26T05:02:11.877Z,3.07
2017-11-26T05:04:39.338Z,3.03
2017-11-26T05:07:06.835Z,4.23
2017-11-26T05:09:34.290Z,3.47
2017-11-26T05:12:01.743Z,4.57
2017-11-26T05:14:29.233Z,3.93
2017-11-26T05:16:56.685Z,3.67
2017-11-26T05:19:24.140Z,4.53
2017-11-26T05:21:51.622Z,3.30
2017-11-26T05:24:19.083Z,3.33
2017-11-26T05:26:46.552Z,3.37
2017-11-26T05:29:14.001Z,3.47
2017-11-26T05:31:41.485Z,3.50
2017-11-26T05:34:08.950Z,4.00
2017-11-26T05:36:36.447Z,3.20
2017-11-26T05:39:03.902Z,3.13
2017-11-26T05:41:31.360Z,3.30
2017-11-26T05:43:58.848Z,4.73
2017-11-26T05:46:26.293Z,4.30
2017-11-26T05:48:53.784Z,4.10
2017-11-26T05:51:21.259Z,5.10
2017-11-26T05:53:48.713Z,3.90
2017-11-26T05:56:16.191Z,3.60
2017-11-26T05:58:43.637Z,5.30
2017-11-26T06:01:11.115Z,4.03
2017-11-26T06:03:38.563Z,5.57
2017-11-26T06:06:06.012Z,4.97
2017-11-26T06:08:33.499Z,4.60
2017-11-26T06:11:00.963Z,4.87
2017-11-26T06:13:28.446Z,3.60
2017-11-26T06:15:55.927Z,4.63
2017-11-26T06:18:23.376Z,6.00
2017-11-26T06:20:50.850Z,6.10
2017-11-26T06:23:18.305Z,5.37
2017-11-26T06:25:45.803Z,5.10
2017-11-26T06:28:13.626Z,7.10
2017-11-26T06:30:41.079Z,5.53
2017-11-26T06:33:08.571Z,6.23
2017-11-26T06:35:36.051Z,3.50
2017-11-26T06:38:03.508Z,7.43
2017-11-26T06:40:30.999Z,3.10
2017-11-26T06:42:58.470Z,4.93
2017-11-26T06:45:25.944Z,5.77
2017-11-26T06:47:53.434Z,4.90
2017-11-26T06:50:20.906Z,5.10
2017-11-26T06:52:48.371Z,6.70
2017-11-26T06:55:15.838Z,6.40
2017-11-26T06:57:43.337Z,8.73
2017-11-26T07:00:10.796Z,6.30
2017-11-26T07:02:38.253Z,7.23
2017-11-26T07:05:05.726Z,9.93
2017-11-26T07:07:33.204Z,7.70
2017-11-26T07:10:00.677Z,7.20
2017-11-26T07:12:28.138Z,10.37
2017-11-26T07:14:55.621Z,10.20
2017-11-26T07:17:23.088Z,9.93
2017-11-26T07:19:50.564Z,5.93
2017-11-26T07:29:01.039Z,8.13
2017-11-26T07:31:28.587Z,11.57
2017-11-26T07:33:56.039Z,12.57
2017-11-26T07:36:23.522Z,13.53
2017-11-26T07:38:51.001Z,10.60
2017-11-26T07:41:19.168Z,10.50
2017-11-26T07:43:46.652Z,10.77
2017-11-26T07:46:14.108Z,9.83
2017-11-26T07:48:41.597Z,9.97
2017-11-26T07:51:09.056Z,12.23
2017-11-26T07:53:36.543Z,17.47
2017-11-26T07:56:04.026Z,13.03
2017-11-26T07:58:31.471Z,9.70
2017-11-26T08:00:58.923Z,10.47
2017-11-26T08:03:26.413Z,10.27
2017-11-26T08:05:53.871Z,8.60
2017-11-26T08:08:21.333Z,10.13
2017-11-26T08:10:48.860Z,10.80
2017-11-26T08:13:16.354Z,10.17
2017-11-26T08:15:43.836Z,12.47
2017-11-26T08:18:11.305Z,10.07
2017-11-26T08:20:38.794Z,10.27
2017-11-26T08:23:06.274Z,12.50
2017-11-26T08:25:33.760Z,10.57
2017-11-26T08:28:01.238Z,14.43
2017-11-26T08:30:28.694Z,16.70
2017-11-26T08:32:56.182Z,17.73
2017-11-26T08:35:23.639Z,17.87
2017-11-26T08:37:51.095Z,13.10
2017-11-26T08:40:18.578Z,15.90
2017-11-26T08:42:46.047Z,15.17
2017-11-26T08:45:13.537Z,12.30
2017-11-26T08:47:41.016Z,17.47
2017-11-26T08:50:08.510Z,13.00
2017-11-26T08:52:35.963Z,11.93
2017-11-26T08:55:03.447Z,15.83
2017-11-26T08:57:30.913Z,10.83
2017-11-26T08:59:58.391Z,19.03
2017-11-26T09:02:25.850Z,14.00
2017-11-26T09:04:53.339Z,16.10
2017-11-26T09:07:26.211Z,17.23
2017-11-26T09:09:53.678Z,14.63
2017-11-26T09:12:21.174Z,19.93
2017-11-26T09:14:48.656Z,17.67
2017-11-26T09:17:16.125Z,19.20
2017-11-26T09:19:43.605Z,16.97
2017-11-26T09:22:11.076Z,17.10
2017-11-26T09:24:38.572Z,18.77
2017-11-26T09:27:06.032Z,14.73
2017-11-26T09:29:33.551Z,15.37
2017-11-26T09:32:01.020Z,15.07
2017-11-26T09:34:28.484Z,17.57
2017-11-26T09:36:55.971Z,14.43
2017-11-26T09:39:23.446Z,15.30
2017-11-26T09:41:50.968Z,16.77
2017-11-26T09:44:18.525Z,16.17
2017-11-26T09:46:45.999Z,13.43
2017-11-26T09:49:13.496Z,13.57
2017-11-26T09:51:40.995Z,14.63
2017-11-26T09:54:08.454Z,9.90
2017-11-26T09:56:35.927Z,11.63
2017-11-26T09:59:03.428Z,10.90
2017-11-26T10:01:30.908Z,9.80
2017-11-26T10:03:58.456Z,12.37
2017-11-26T10:06:26.024Z,10.60
2017-11-26T10:08:53.542Z,8.00
2017-11-26T10:11:20.982Z,5.70
2017-11-26T10:13:48.430Z,7.90
2017-11-26T10:16:16.228Z,7.30
2017-11-26T10:18:43.712Z,6.70
2017-11-26T10:21:11.170Z,8.00
2017-11-26T10:23:38.644Z,9.73
2017-11-26T10:26:06.411Z,12.30
2017-11-26T10:28:34.054Z,8.17
2017-11-26T10:31:01.542Z,9.80
2017-11-26T10:33:29.024Z,9.80
2017-11-26T10:35:56.478Z,12.77
2017-11-26T10:38:24.125Z,7.90
2017-11-26T10:40:52.073Z,10.53
2017-11-26T10:43:19.558Z,12.00
2017-11-26T10:45:47.042Z,9.40
2017-11-26T10:48:14.567Z,11.90
2017-11-26T10:50:42.024Z,12.37
2017-11-26T10:53:09.501Z,9.60
2017-11-26T10:55:36.986Z,10.20
2017-11-26T10:58:04.436Z,12.10
2017-11-26T11:00:31.924Z,12.13
2017-11-26T11:02:59.400Z,8.40
2017-11-26T11:05:26.850Z,7.70
2017-11-26T11:07:54.321Z,9.50
2017-11-26T11:10:21.815Z,11.20
2017-11-26T11:12:49.282Z,7.97
2017-11-26T11:15:16.732Z,6.83
2017-11-26T11:17:44.206Z,8.50
2017-11-26T11:20:11.677Z,8.90
2017-11-26T11:22:39.135Z,6.43
2017-11-26T11:25:06.615Z,7.87
2017-11-26T11:27:34.070Z,9.77
2017-11-26T11:30:01.537Z,7.40
2017-11-26T11:32:28.995Z,8.00
2017-11-26T11:34:56.437Z,7.23
2017-11-26T11:37:23.908Z,6.77
2017-11-26T11:39:51.376Z,3.70
2017-11-26T11:42:18.853Z,9.00
2017-11-26T11:44:46.320Z,6.10
2017-11-26T11:47:13.800Z,8.40
2017-11-26T11:49:41.247Z,7.07
2017-11-26T11:52:08.733Z,7.50
2017-11-26T11:54:36.191Z,6.80
2017-11-26T11:57:03.653Z,5.93
2017-11-26T11:59:31.161Z,4.90
2017-11-26T12:01:58.643Z,6.43
2017-11-26T12:04:26.099Z,6.37
2017-11-26T12:06:53.589Z,5.80
2017-11-26T12:09:21.055Z,5.37
2017-11-26T12:11:48.534Z,5.20
2017-11-26T12:14:16.004Z,8.43
2017-11-26T12:16:43.493Z,5.60
2017-11-26T12:19:10.950Z,6.37
2017-11-26T12:21:38.418Z,5.30
2017-11-26T12:24:05.866Z,5.77
2017-11-26T12:26:33.370Z,3.90
2017-11-26T12:29:01.067Z,6.67
2017-11-26T12:31:28.510Z,5.00
2017-11-26T12:33:56.003Z,5.30
2017-11-26T12:36:23.464Z,4.40
2017-11-26T12:38:50.914Z,5.50
2017-11-26T12:41:18.410Z,4.63
2017-11-26T12:43:45.855Z,4.77
2017-11-26T12:46:13.331Z,5.20
2017-11-26T12:48:40.791Z,4.90
2017-11-26T12:51:08.272Z,4.40
2017-11-26T12:53:35.739Z,5.43
2017-11-26T12:56:03.205Z,5.33
2017-11-26T12:58:30.679Z,6.17
2017-11-26T13:00:58.146Z,4.27
2017-11-26T13:03:25.592Z,4.90
2017-11-26T13:05:53.063Z,3.70
2017-11-26T13:08:20.534Z,4.50
2017-11-26T13:13:01.507Z,9.27
